Time;durP1;ratioP1;P1;durP2;ratioP2;P2;SDS_P1;SDS_P2;PMS_P1;PMS_P2;Temp;Humidity;BMP_temperature;BMP_pressure;BME280_temperature;BME280_humidity;BME280_pressure;Samples;Min_cycle;Max_cycle;Signal;HPM_P1;HPM_P2
2021/12/19 00:01:09;;;;;;;16.17;7.78;;;;;;;5.97;64.62;100670.19;4353755;32;32270;-94
2021/12/19 00:04:12;;;;;;;16.80;8.38;;;;;;;5.64;65.72;100666.97;4405572;32;32375;-91
2021/12/19 00:09:55;;;;;;;18.25;7.37;;;;;;;5.83;65.44;100665.91;4374266;32;32547;-94
2021/12/19 00:12:51;;;;;;;13.70;7.22;;;;;;;5.79;65.38;100671.19;4387654;32;33929;-93
2021/12/19 00:15:30;;;;;;;17.35;7.45;;;;;;;6.15;63.80;100662.97;4422959;32;33069;-92
2021/12/19 00:18:22;;;;;;;14.00;7.60;;;;;;;6.15;64.00;100659.47;4350723;32;32812;-92
2021/12/19 00:21:04;;;;;;;13.45;7.78;;;;;;;6.23;63.78;100662.88;4388685;32;33225;-94
2021/12/19 00:23:49;;;;;;;14.57;8.13;;;;;;;6.36;63.23;100656.63;4394468;32;32313;-93
2021/12/19 00:26:31;;;;;;;11.77;6.57;;;;;;;6.54;62.67;100654.63;4392690;32;33029;-92
2021/12/19 00:29:13;;;;;;;15.85;7.85;;;;;;;6.49;62.91;100648.56;4370844;32;33192;-93
2021/12/19 00:32:04;;;;;;;15.65;8.27;;;;;;;6.44;63.25;100642.50;4349720;32;33032;-92
2021/12/19 00:34:51;;;;;;;19.52;8.07;;;;;;;6.23;64.17;100641.91;4380160;32;31803;-91
2021/12/19 00:37:45;;;;;;;15.65;7.70;;;;;;;6.36;63.85;100633.00;4386748;32;34435;-94
2021/12/19 00:40:25;;;;;;;17.35;7.70;;;;;;;6.02;65.32;100629.03;4356768;32;33086;-92
2021/12/19 00:43:10;;;;;;;15.50;7.37;;;;;;;6.39;63.97;100614.56;4339359;32;33864;-91
2021/12/19 00:45:54;;;;;;;16.17;7.93;;;;;;;6.01;65.18;100625.56;4407655;32;32250;-94
2021/12/19 00:48:52;;;;;;;14.82;7.57;;;;;;;5.89;65.59;100626.56;4406835;32;32490;-93
2021/12/19 00:51:34;;;;;;;18.08;8.00;;;;;;;6.40;64.19;100628.56;4381266;32;32818;-94
2021/12/19 00:54:16;;;;;;;22.52;9.00;;;;;;;6.06;65.16;100618.50;4326193;33;32632;-92
2021/12/19 01:01:22;;;;;;;14.93;7.55;;;;;;;6.23;64.93;100609.56;4381797;32;35477;-95
2021/12/19 01:04:09;;;;;;;16.80;8.35;;;;;;;6.15;65.42;100612.28;4382205;32;33741;-96
2021/12/19 01:06:53;;;;;;;18.75;8.50;;;;;;;6.06;65.93;100618.50;4409439;32;32925;-96
2021/12/19 01:09:37;;;;;;;18.92;8.73;;;;;;;6.18;65.57;100622.75;4355859;32;32104;-96
2021/12/19 01:12:20;;;;;;;18.02;8.73;;;;;;;6.23;65.49;100620.06;4379306;32;33794;-96
2021/12/19 01:15:03;;;;;;;;;;;;;;;6.13;65.83;100620.19;4334477;33;32907;-96
2021/12/19 01:17:45;;;;;;;13.90;7.37;;;;;;;6.16;65.94;100609.63;4352486;32;32791;-95
2021/12/19 01:49:33;;;;;;;17.45;7.60;;;;;;;6.65;65.69;100579.25;4466533;27;20107;-96
2021/12/19 01:52:28;;;;;;;17.87;7.72;;;;;;;6.54;66.14;100568.03;4329664;33;34129;-96
2021/12/19 01:55:16;;;;;;;14.25;6.97;;;;;;;6.81;65.35;100559.72;4310436;33;32883;-96
2021/12/19 02:22:58;;;;;;;14.98;7.35;;;;;;;6.95;65.32;100509.62;4304129;33;34951;-95
2021/12/19 02:25:43;;;;;;;13.85;7.12;;;;;;;6.89;65.78;100507.97;4253750;33;32253;-94
2021/12/19 02:28:38;;;;;;;13.13;6.60;;;;;;;7.03;65.31;100494.59;4287015;33;32621;-94
2021/12/19 02:31:30;;;;;;;13.27;6.43;;;;;;;7.33;64.31;100492.28;4296581;33;34946;-96
2021/12/19 02:34:24;;;;;;;12.45;6.15;;;;;;;6.91;65.74;100482.53;4285528;33;32502;-96
2021/12/19 02:37:23;;;;;;;16.55;7.25;;;;;;;7.10;65.05;100474.34;4279844;33;31558;-96
2021/12/19 02:40:33;;;;;;;18.52;6.90;;;;;;;7.31;64.48;100479.19;4282361;33;32973;-95
2021/12/19 02:49:32;;;;;;;14.10;6.63;;;;;;;6.97;65.65;100481.56;4311645;33;31897;-96
2021/12/19 02:52:20;;;;;;;11.38;5.97;;;;;;;7.16;65.35;100468.97;4345984;33;34467;-96
2021/12/19 02:55:08;;;;;;;12.02;5.90;;;;;;;7.57;63.63;100457.63;4363445;32;32711;-96
2021/12/19 02:58:02;;;;;;;10.75;6.40;;;;;;;7.42;64.14;100453.56;4339846;33;32421;-96
2021/12/19 03:19:59;;;;;;;;;;;;;;;7.11;64.85;100397.28;4317302;33;20155;-95
2021/12/19 03:22:41;;;;;;;10.30;5.87;;;;;;;7.01;65.32;100401.84;4310180;33;33247;-96
2021/12/19 03:25:23;;;;;;;12.07;6.87;;;;;;;6.70;66.26;100405.97;4291356;33;32239;-95
2021/12/19 03:28:08;;;;;;;12.85;6.20;;;;;;;7.04;65.07;100390.44;4289231;33;33318;-96
2021/12/19 03:30:50;;;;;;;12.37;6.35;;;;;;;7.22;64.24;100399.72;4304220;33;32400;-96
2021/12/19 03:33:35;;;;;;;10.25;6.03;;;;;;;7.22;64.39;100390.06;4295095;33;33062;-95
2021/12/19 03:36:17;;;;;;;10.52;5.47;;;;;;;7.34;63.78;100396.81;4301429;33;32198;-96
2021/12/19 03:39:13;;;;;;;11.52;6.40;;;;;;;7.35;63.67;100385.41;4335451;33;34485;-95
2021/12/19 03:41:58;;;;;;;9.65;5.45;;;;;;;7.28;63.90;100363.66;4359297;32;32517;-93
2021/12/19 03:44:40;;;;;;;11.00;5.82;;;;;;;7.19;63.86;100364.72;4351947;32;32739;-94
2021/12/19 03:47:26;;;;;;;11.32;6.30;;;;;;;7.13;64.12;100361.38;4325239;33;32385;-93
2021/12/19 03:50:11;;;;;;;8.40;5.53;;;;;;;6.99;64.65;100355.53;4347427;33;32850;-93
2021/12/19 03:52:54;;;;;;;11.43;6.37;;;;;;;7.00;64.27;100362.50;4340993;32;33531;-93
2021/12/19 03:55:37;;;;;;;9.75;5.90;;;;;;;7.19;63.53;100348.97;4333089;33;33157;-94
2021/12/19 03:58:20;;;;;;;10.00;6.10;;;;;;;7.05;64.28;100355.41;4322562;33;33992;-93
2021/12/19 04:01:06;;;;;;;11.43;6.10;;;;;;;6.86;65.11;100368.87;4310337;33;33509;-94
2021/12/19 04:03:48;;;;;;;9.43;5.57;;;;;;;7.10;64.16;100364.91;4355630;32;33967;-95
2021/12/19 04:06:30;;;;;;;12.23;7.22;;;;;;;6.92;64.48;100366.13;4359449;32;32845;-94
2021/12/19 04:09:12;;;;;;;12.82;6.90;;;;;;;7.19;63.66;100366.47;4342611;33;32355;-93
2021/12/19 04:11:55;;;;;;;11.68;7.07;;;;;;;6.90;64.47;100361.81;4330484;33;32295;-92
2021/12/19 04:14:38;;;;;;;12.15;6.50;;;;;;;6.92;64.32;100360.03;4335420;33;33719;-93
2021/12/19 04:17:21;;;;;;;11.52;6.90;;;;;;;6.99;63.95;100372.16;4328100;33;32402;-92
2021/12/19 04:20:18;;;;;;;14.48;7.68;;;;;;;7.25;63.16;100361.09;4336509;33;34269;-94
2021/12/19 04:23:00;;;;;;;12.73;7.43;;;;;;;7.09;63.43;100360.56;4338188;33;33502;-95
2021/12/19 04:25:42;;;;;;;13.55;7.80;;;;;;;7.27;62.64;100354.06;4309203;33;33499;-94
2021/12/19 04:28:24;;;;;;;10.68;6.10;;;;;;;7.22;62.71;100352.44;4343422;33;34142;-94
2021/12/19 04:31:48;;;;;;;13.02;6.47;;;;;;;6.77;64.29;100337.56;4328783;33;34026;-95
2021/12/19 04:34:30;;;;;;;13.43;6.75;;;;;;;6.76;64.10;100343.72;4344243;33;32707;-94
2021/12/19 04:37:36;;;;;;;12.57;7.05;;;;;;;7.11;62.70;100327.25;4327905;33;32790;-93
2021/12/19 04:40:35;;;;;;;11.40;6.95;;;;;;;7.06;63.20;100329.09;4325816;33;34722;-96
2021/12/19 05:04:06;;;;;;;9.68;5.62;;;;;;;6.53;64.11;100296.91;4336062;33;33101;-95
2021/12/19 05:15:53;;;;;;;8.52;6.20;;;;;;;6.89;62.97;100274.34;4325255;33;32371;-95
2021/12/19 05:18:39;;;;;;;8.70;5.37;;;;;;;6.90;62.95;100267.31;4321138;33;32567;-96
2021/12/19 05:21:26;;;;;;;12.05;6.15;;;;;;;6.95;62.93;100264.59;4334990;33;32685;-95
2021/12/19 05:24:22;;;;;;;9.35;5.90;;;;;;;6.77;63.51;100258.81;4306101;33;32768;-95
2021/12/19 05:27:05;;;;;;;8.40;5.10;;;;;;;6.54;64.47;100261.06;4309459;33;33187;-95
2021/12/19 05:29:48;;;;;;;10.45;6.00;;;;;;;6.73;63.85;100249.28;4310777;33;20142;-94
2021/12/19 05:32:30;;;;;;;8.98;6.12;;;;;;;6.50;64.52;100246.25;4347671;33;32427;-94
2021/12/19 05:35:15;;;;;;;8.80;6.00;;;;;;;6.75;64.00;100246.66;4349767;32;34265;-96
2021/12/19 05:48:39;;;;;;;8.27;5.07;;;;;;;6.57;64.82;100237.41;4357491;33;34974;-96
2021/12/19 06:02:56;;;;;;;9.60;5.00;;;;;;;6.47;65.83;100234.09;4326875;33;32298;-96
2021/12/19 06:05:41;;;;;;;7.62;4.75;;;;;;;6.94;64.39;100240.09;4307762;33;33148;-96
2021/12/19 06:08:24;;;;;;;9.93;5.53;;;;;;;6.92;64.31;100234.88;4292883;33;32596;-95
2021/12/19 06:11:16;;;;;;;13.20;6.12;;;;;;;6.48;66.28;100253.31;4357889;32;32989;-94
2021/12/19 06:13:58;;;;;;;7.97;4.97;;;;;;;6.83;64.99;100245.56;4292081;33;33241;-95
2021/12/19 06:16:42;;;;;;;7.57;4.70;;;;;;;7.09;64.20;100242.38;4320866;33;32360;-96
2021/12/19 06:19:25;;;;;;;9.02;5.10;;;;;;;7.06;64.10;100252.09;4323741;33;33317;-96
2021/12/19 06:22:08;;;;;;;13.60;5.28;;;;;;;7.06;64.09;100236.34;4309744;33;32718;-94
2021/12/19 06:24:51;;;;;;;7.97;4.37;;;;;;;7.07;63.93;100238.06;4288027;33;33113;-95
2021/12/19 06:27:33;;;;;;;8.90;6.15;;;;;;;7.30;63.24;100242.78;4278704;33;32885;-94
2021/12/19 06:30:29;;;;;;;8.05;5.37;;;;;;;6.81;65.09;100239.50;4314826;33;34977;-96
2021/12/19 06:33:13;;;;;;;9.02;5.72;;;;;;;7.37;63.00;100229.50;4347236;33;32903;-96
2021/12/19 06:35:55;;;;;;;7.78;4.80;;;;;;;6.80;65.32;100240.41;4327986;33;33101;-92
2021/12/19 06:38:27;;;;;;;6.22;4.45;;;;;;;7.43;62.84;100231.97;4331068;33;33107;-94
2021/12/19 06:41:09;;;;;;;7.18;4.32;;;;;;;7.23;63.69;100223.69;4316447;33;32695;-92
2021/12/19 06:43:52;;;;;;;6.57;4.35;;;;;;;7.18;63.83;100229.06;4330251;33;33052;-95
2021/12/19 06:46:34;;;;;;;6.20;4.30;;;;;;;7.43;63.09;100210.94;4360561;32;32919;-95
2021/12/19 06:49:16;;;;;;;7.18;3.95;;;;;;;7.63;62.00;100206.97;4320486;33;33057;-94
2021/12/19 06:52:07;;;;;;;7.12;4.20;;;;;;;7.27;63.36;100192.97;4306346;33;33740;-94
2021/12/19 06:54:49;;;;;;;6.70;4.40;;;;;;;7.03;64.33;100210.16;4294915;33;33610;-93
2021/12/19 06:57:52;;;;;;;6.07;4.10;;;;;;;7.29;63.40;100202.53;4320316;33;35523;-95
2021/12/19 07:00:34;;;;;;;4.90;3.37;;;;;;;7.38;63.18;100206.72;4293779;33;32682;-95
2021/12/19 07:03:31;;;;;;;9.57;4.62;;;;;;;7.32;63.62;100199.84;4327734;33;34032;-96
2021/12/19 07:06:16;;;;;;;9.30;5.75;;;;;;;7.57;62.57;100186.09;4365778;32;32468;-96
2021/12/19 07:08:59;;;;;;;7.15;4.70;;;;;;;7.85;61.69;100188.88;4312643;33;33295;-96
2021/12/19 07:11:54;;;;;;;7.53;4.62;;;;;;;7.68;61.62;100186.66;4335094;33;35249;-94
2021/12/19 07:14:34;;;;;;;8.50;4.55;;;;;;;7.71;61.83;100186.59;4352716;32;32157;-94
2021/12/19 07:17:28;;;;;;;7.97;4.43;;;;;;;7.85;61.24;100186.25;4324504;33;34458;-94
2021/12/19 07:20:11;;;;;;;7.60;4.53;;;;;;;7.56;62.05;100174.72;4323162;33;34123;-94
2021/12/19 07:22:53;;;;;;;8.25;5.07;;;;;;;7.75;61.38;100174.25;4311432;33;34042;-94
2021/12/19 07:25:35;;;;;;;8.55;4.68;;;;;;;7.73;61.81;100171.66;4335008;33;32986;-96
2021/12/19 07:28:18;;;;;;;7.75;5.07;;;;;;;7.64;61.82;100175.41;4349486;33;32950;-96
2021/12/19 07:31:01;;;;;;;9.30;4.90;;;;;;;7.54;62.14;100165.13;4309429;33;33367;-92
2021/12/19 07:33:45;;;;;;;;;;;;;;;7.67;62.08;100167.41;4347025;33;32898;-92
2021/12/19 07:36:39;;;;;;;7.28;4.30;;;;;;;7.54;62.42;100173.03;4301840;33;33835;-91
2021/12/19 07:42:16;;;;;;;8.80;5.62;;;;;;;7.73;62.13;100179.53;4257018;33;32419;-92
2021/12/19 07:45:11;;;;;;;8.07;5.75;;;;;;;7.90;61.42;100177.34;4332080;33;34555;-91
2021/12/19 07:47:40;;;;;;;10.45;6.50;;;;;;;7.66;62.14;100177.97;4329787;33;32075;-93
2021/12/19 07:50:32;;;;;;;8.13;5.18;;;;;;;7.61;62.58;100177.25;4328200;33;33016;-93
2021/12/19 07:53:35;;;;;;;8.90;5.40;;;;;;;7.62;62.29;100166.69;4334932;33;33974;-93
2021/12/19 07:56:26;;;;;;;7.80;4.70;;;;;;;7.50;62.42;100164.38;4338166;32;32406;-92
2021/12/19 07:59:06;;;;;;;11.52;5.47;;;;;;;7.62;62.20;100155.31;4296018;33;32306;-92
2021/12/19 08:01:57;;;;;;;9.40;5.50;;;;;;;7.36;62.74;100151.59;4338428;33;33031;-93
2021/12/19 08:04:48;;;;;;;6.93;4.40;;;;;;;7.72;62.33;100153.28;4310464;33;32117;-88
2021/12/19 08:07:17;;;;;;;7.03;4.53;;;;;;;7.13;64.27;100146.03;4322846;33;33867;-89
2021/12/19 08:12:45;;;;;;;6.35;4.47;;;;;;;7.48;63.22;100131.16;4306007;33;32731;-89
2021/12/19 08:15:15;;;;;;;9.65;5.18;;;;;;;7.59;62.71;100131.72;4327672;33;32746;-89
2021/12/19 08:17:44;;;;;;;8.30;4.87;;;;;;;7.63;62.86;100128.13;4315279;33;32965;-88
2021/12/19 08:20:14;;;;;;;4.93;3.62;;;;;;;7.90;61.79;100122.13;4315961;33;32148;-88
2021/12/19 08:22:42;;;;;;;6.47;3.85;;;;;;;7.73;62.12;100111.19;4311290;33;32373;-89
2021/12/19 08:25:10;;;;;;;7.95;4.22;;;;;;;7.61;62.95;100120.28;4328494;33;34606;-89
2021/12/19 08:27:39;;;;;;;4.53;3.58;;;;;;;7.84;62.22;100116.19;4315286;33;32935;-89
2021/12/19 08:30:09;;;;;;;4.90;3.60;;;;;;;7.87;62.07;100122.19;4325513;33;32787;-89
2021/12/19 08:32:38;;;;;;;6.10;3.50;;;;;;;7.90;62.54;100114.22;4328248;33;33931;-88
2021/12/19 08:35:07;;;;;;;6.53;3.47;;;;;;;7.91;62.29;100108.06;4324155;33;33092;-88
2021/12/19 08:37:35;;;;;;;8.70;3.87;;;;;;;8.17;61.45;100117.00;4326025;33;32832;-88
2021/12/19 08:40:04;;;;;;;4.60;3.35;;;;;;;7.75;63.04;100101.50;4326582;33;34144;-89
2021/12/19 08:42:33;;;;;;;4.82;3.15;;;;;;;7.81;63.23;100103.97;4319420;33;33305;-89
2021/12/19 08:45:03;;;;;;;7.18;3.85;;;;;;;8.00;62.50;100108.72;4316231;33;33694;-90
2021/12/19 08:47:31;;;;;;;7.05;4.37;;;;;;;8.10;61.88;100097.87;4326076;33;33819;-89
2021/12/19 08:49:59;;;;;;;5.53;3.28;;;;;;;7.73;63.54;100105.06;4319570;33;32734;-89
2021/12/19 08:52:27;;;;;;;5.68;3.35;;;;;;;8.01;62.39;100087.63;4329098;33;32703;-90
2021/12/19 08:54:55;;;;;;;4.82;3.53;;;;;;;8.00;62.34;100092.94;4313642;33;33448;-90
2021/12/19 08:57:22;;;;;;;10.13;4.72;;;;;;;8.02;62.36;100077.97;4329841;33;32956;-89
2021/12/19 08:59:51;;;;;;;6.82;4.28;;;;;;;7.55;64.29;100072.25;4313197;33;33203;-90
2021/12/19 09:02:19;;;;;;;7.25;4.07;;;;;;;8.09;62.29;100074.25;4329445;33;33137;-89
2021/12/19 09:04:48;;;;;;;6.90;4.28;;;;;;;8.12;62.08;100071.56;4315895;33;33533;-90
2021/12/19 09:07:18;;;;;;;8.52;4.32;;;;;;;8.03;62.07;100058.69;4305574;33;32829;-89
2021/12/19 09:09:49;;;;;;;9.65;4.47;;;;;;;8.22;62.02;100046.69;4317459;33;32311;-90
2021/12/19 09:12:17;;;;;;;7.57;4.47;;;;;;;7.99;62.83;100067.56;4302384;33;33208;-90
2021/12/19 09:14:45;;;;;;;11.75;5.22;;;;;;;8.16;62.28;100049.50;4324203;33;32860;-89
2021/12/19 09:17:14;;;;;;;6.78;3.90;;;;;;;8.27;61.67;100057.94;4313976;33;33168;-89
2021/12/19 09:19:42;;;;;;;8.82;5.22;;;;;;;8.40;60.98;100040.91;4316423;33;33375;-90
2021/12/19 09:22:10;;;;;;;18.70;4.93;;;;;;;8.42;61.27;100032.97;4314918;33;32688;-90
2021/12/19 09:24:37;;;;;;;6.22;3.95;;;;;;;8.78;60.13;100022.16;4313839;33;32962;-90
2021/12/19 09:27:07;;;;;;;10.65;4.70;;;;;;;8.84;59.32;100022.84;4325421;33;32758;-90
2021/12/19 09:29:36;;;;;;;8.35;4.22;;;;;;;8.82;59.90;100014.09;4312665;33;32428;-90
2021/12/19 09:32:44;;;;;;;5.93;3.83;;;;;;;8.77;59.27;99997.59;4304647;33;33553;-90
2021/12/19 09:35:22;;;;;;;8.88;4.60;;;;;;;9.03;58.45;99995.88;4306958;33;33289;-90
2021/12/19 09:38:35;;;;;;;6.87;3.60;;;;;;;8.98;58.78;99993.41;4323905;33;33007;-90
2021/12/19 09:41:27;;;;;;;6.00;3.55;;;;;;;8.96;58.50;99993.44;4335353;33;33322;-89
2021/12/19 09:44:28;;;;;;;9.02;4.18;;;;;;;8.60;60.04;99994.69;4309893;33;33002;-91
2021/12/19 09:47:15;;;;;;;5.55;3.12;;;;;;;8.82;58.59;99981.66;4306199;33;32431;-90
2021/12/19 09:49:58;;;;;;;;;;;;;;;9.03;58.27;99978.31;4308925;33;33224;-91
2021/12/19 09:52:27;;;;;;;7.18;3.47;;;;;;;8.89;58.40;99970.00;4306472;33;32324;-90
2021/12/19 09:54:57;;;;;;;6.30;4.07;;;;;;;8.78;59.18;99962.44;4317735;33;32488;-90
2021/12/19 09:57:27;;;;;;;6.35;3.90;;;;;;;8.90;58.43;99953.28;4327989;33;32594;-90
2021/12/19 10:00:06;;;;;;;6.62;3.75;;;;;;;8.97;58.32;99945.13;4315100;33;33636;-90
2021/12/19 10:02:55;;;;;;;5.70;2.87;;;;;;;8.94;58.57;99933.84;4347210;32;32034;-88
2021/12/19 10:05:43;;;;;;;5.05;2.95;;;;;;;8.86;58.81;99928.84;4349629;32;33735;-89
2021/12/19 10:08:25;;;;;;;9.45;3.85;;;;;;;9.30;57.09;99929.03;4303323;33;33574;-90
2021/12/19 10:11:34;;;;;;;5.18;3.47;;;;;;;9.05;57.99;99920.28;4305284;33;33385;-90
2021/12/19 10:14:35;;;;;;;8.52;3.00;;;;;;;9.15;57.37;99912.00;4319211;33;32553;-90
2021/12/19 10:17:04;;;;;;;6.45;3.50;;;;;;;8.67;58.38;99898.78;4303991;33;32600;-90
2021/12/19 10:19:46;;;;;;;4.50;3.53;;;;;;;8.79;57.96;99916.81;4321979;33;33359;-90
2021/12/19 10:22:30;;;;;;;6.40;2.95;;;;;;;8.93;57.95;99916.34;4312494;33;32441;-90
2021/12/19 10:25:22;;;;;;;7.37;3.75;;;;;;;8.66;58.76;99897.06;4322895;33;33833;-90
2021/12/19 10:27:54;;;;;;;6.85;3.40;;;;;;;9.12;57.20;99882.28;4325374;33;34129;-89
2021/12/19 10:30:34;;;;;;;5.47;3.30;;;;;;;8.98;57.82;99886.28;4325997;33;33496;-89
2021/12/19 10:33:07;;;;;;;5.60;3.60;;;;;;;8.87;57.91;99895.47;4330154;33;32841;-89
2021/12/19 10:36:05;;;;;;;4.65;3.08;;;;;;;8.60;58.82;99897.28;4317989;33;33776;-89
2021/12/19 10:38:42;;;;;;;5.82;3.58;;;;;;;8.95;58.03;99880.25;4300550;33;32889;-89
2021/12/19 10:41:30;;;;;;;6.82;3.22;;;;;;;8.83;58.54;99886.81;4306726;33;32851;-89
2021/12/19 10:44:07;;;;;;;6.78;3.70;;;;;;;9.07;56.92;99886.84;4331130;33;32582;-90
2021/12/19 10:46:38;;;;;;;8.55;3.08;;;;;;;8.90;58.39;99864.63;4325273;33;32494;-91
2021/12/19 10:49:28;;;;;;;6.37;4.40;;;;;;;9.16;57.58;99876.84;4325750;33;33090;-89
2021/12/19 10:52:04;;;;;;;6.57;4.03;;;;;;;9.10;57.16;99878.84;4330197;33;33249;-89
2021/12/19 10:54:33;;;;;;;7.62;3.40;;;;;;;9.23;57.29;99888.03;4329138;33;33747;-90
2021/12/19 10:57:07;;;;;;;6.15;3.80;;;;;;;9.35;56.71;99891.97;4323612;33;32593;-90
2021/12/19 10:59:35;;;;;;;;;;;;;;;9.71;55.18;99880.03;4316400;33;33072;-89
2021/12/19 11:02:04;;;;;;;6.57;3.17;;;;;;;9.20;56.20;99894.25;4323415;33;32597;-89
2021/12/19 11:04:47;;;;;;;5.25;3.03;;;;;;;9.38;56.16;99887.44;4308236;33;33785;-90
2021/12/19 11:07:21;;;;;;;3.58;2.37;;;;;;;8.98;57.05;99890.69;4315235;33;32880;-90
2021/12/19 11:09:49;;;;;;;6.47;3.40;;;;;;;9.01;56.73;99881.81;4318957;33;32575;-90
2021/12/19 11:12:17;;;;;;;5.47;3.40;;;;;;;8.96;56.92;99874.06;4326145;33;32531;-89
2021/12/19 11:14:49;;;;;;;7.53;3.65;;;;;;;8.87;56.94;99875.25;4324139;33;33946;-90
2021/12/19 11:17:18;;;;;;;7.78;3.90;;;;;;;8.94;57.06;99871.50;4322378;33;32989;-90
2021/12/19 11:19:52;;;;;;;6.97;3.67;;;;;;;8.96;56.73;99874.91;4323129;33;33056;-90
2021/12/19 11:22:26;;;;;;;4.72;3.08;;;;;;;8.67;57.54;99898.78;4325053;33;33375;-90
2021/12/19 11:24:57;;;;;;;5.43;3.53;;;;;;;8.41;58.19;99913.69;4316301;33;32842;-89
2021/12/19 11:27:25;;;;;;;4.75;3.05;;;;;;;8.38;58.39;99916.41;4310843;33;32721;-89
2021/12/19 11:29:54;;;;;;;6.80;3.87;;;;;;;8.72;57.07;99910.03;4311105;33;32434;-90
2021/12/19 11:32:47;;;;;;;8.55;4.80;;;;;;;8.81;56.77;99914.97;4320445;33;32788;-89
2021/12/19 11:35:21;;;;;;;7.68;4.07;;;;;;;8.70;57.00;99910.06;4309437;33;32553;-90
2021/12/19 11:37:56;;;;;;;5.47;4.03;;;;;;;8.87;56.72;99906.00;4328386;33;33515;-90
2021/12/19 11:40:25;;;;;;;5.68;3.58;;;;;;;9.16;55.82;99902.31;4314109;33;32917;-90
2021/12/19 11:43:02;;;;;;;5.60;3.10;;;;;;;9.03;56.50;99912.44;4315974;33;34035;-90
2021/12/19 11:45:35;;;;;;;6.72;3.83;;;;;;;9.18;55.85;99908.41;4314452;33;33476;-90
2021/12/19 11:48:27;;;;;;;9.90;5.50;;;;;;;9.25;56.05;99912.53;4314013;33;33175;-90
2021/12/19 11:51:15;;;;;;;6.68;3.67;;;;;;;9.55;54.88;99913.19;4322668;33;32563;-90
2021/12/19 11:53:44;;;;;;;7.00;3.97;;;;;;;9.48;54.90;99904.63;4325132;33;33802;-90
2021/12/19 11:56:16;;;;;;;6.47;3.65;;;;;;;9.12;55.72;99904.22;4319393;33;33632;-90
2021/12/19 11:58:49;;;;;;;5.00;3.22;;;;;;;8.58;57.10;99899.09;4312897;33;32628;-89
2021/12/19 12:01:28;;;;;;;5.35;3.25;;;;;;;9.02;56.05;99901.94;4340206;33;33195;-89
2021/12/19 12:04:19;;;;;;;4.72;3.33;;;;;;;8.93;56.64;99905.78;4333330;33;32615;-90
2021/12/19 12:06:57;;;;;;;8.15;3.42;;;;;;;8.63;57.07;99910.31;4316519;33;32712;-89
2021/12/19 12:09:40;;;;;;;3.65;2.78;;;;;;;8.95;55.96;99899.53;4308507;33;31930;-90
2021/12/19 12:12:15;;;;;;;5.03;3.62;;;;;;;8.84;56.72;99901.72;4333423;33;32784;-90
2021/12/19 12:15:01;;;;;;;7.20;3.72;;;;;;;9.03;55.81;99901.06;4326752;33;33724;-89
2021/12/19 12:17:34;;;;;;;4.15;2.47;;;;;;;8.68;57.20;99908.41;4321485;33;33684;-89
2021/12/19 12:20:21;;;;;;;5.80;3.40;;;;;;;8.39;57.86;99889.19;4323393;33;32370;-89
2021/12/19 12:22:53;;;;;;;6.45;3.58;;;;;;;8.50;57.33;99895.84;4329901;33;32580;-89
2021/12/19 12:25:23;;;;;;;6.78;3.65;;;;;;;8.49;57.08;99889.75;4324971;33;33758;-89
2021/12/19 12:28:02;;;;;;;6.05;3.42;;;;;;;8.68;56.65;99882.06;4326127;33;33989;-89
2021/12/19 12:30:34;;;;;;;5.55;3.90;;;;;;;8.84;55.99;99874.53;4318214;33;31964;-89
2021/12/19 12:33:04;;;;;;;5.50;3.67;;;;;;;8.81;56.11;99880.75;4322902;33;32781;-89
2021/12/19 12:35:36;;;;;;;8.50;4.12;;;;;;;8.49;57.54;99873.09;4322737;33;32802;-90
2021/12/19 12:38:05;;;;;;;5.68;3.17;;;;;;;8.65;56.64;99869.91;4329876;33;32984;-89
2021/12/19 12:40:45;;;;;;;5.55;3.85;;;;;;;8.97;55.88;99867.88;4328988;33;32214;-89
2021/12/19 12:43:19;;;;;;;5.65;3.15;;;;;;;8.84;55.97;99862.22;4322310;33;32841;-89
2021/12/19 12:45:57;;;;;;;6.68;3.15;;;;;;;8.17;58.27;99862.72;4316580;33;33056;-89
2021/12/19 12:48:30;;;;;;;5.57;2.85;;;;;;;8.43;57.77;99861.00;4327264;33;33891;-89
2021/12/19 12:51:00;;;;;;;4.65;3.17;;;;;;;8.45;57.72;99852.16;4309743;33;32684;-90
2021/12/19 12:53:39;;;;;;;5.07;3.45;;;;;;;8.45;57.95;99848.66;4329075;33;32802;-90
2021/12/19 13:00:22;;;;;;;5.43;3.08;;;;;;;8.43;57.98;99847.84;4336323;33;33909;-90
2021/12/19 13:03:21;;;;;;;4.75;2.85;;;;;;;8.41;57.96;99844.44;4325488;33;32070;-90
2021/12/19 13:05:48;;;;;;;5.57;3.40;;;;;;;8.39;57.94;99836.56;4331647;33;33915;-90
2021/12/19 13:09:03;;;;;;;5.53;3.10;;;;;;;8.57;57.07;99834.22;4302232;33;33150;-90
2021/12/19 13:11:31;;;;;;;5.55;3.22;;;;;;;8.48;57.19;99829.28;4325251;33;34159;-89
2021/12/19 13:14:15;;;;;;;7.68;3.45;;;;;;;8.14;58.09;99835.66;4313656;33;33819;-89
2021/12/19 13:16:52;;;;;;;6.10;2.80;;;;;;;8.36;57.78;99828.78;4312169;33;33109;-90
2021/12/19 13:19:40;;;;;;;8.57;3.85;;;;;;;8.44;57.57;99828.50;4308910;33;32356;-90
2021/12/19 13:22:16;;;;;;;9.88;4.12;;;;;;;7.78;59.67;99828.03;4321621;33;32957;-89
2021/12/19 13:24:46;;;;;;;6.12;3.25;;;;;;;7.96;59.53;99822.19;4303202;33;32517;-90
2021/12/19 13:27:14;;;;;;;4.53;2.85;;;;;;;8.17;58.48;99825.03;4316571;33;33775;-90
2021/12/19 13:29:55;;;;;;;4.62;2.55;;;;;;;8.35;57.65;99824.38;4322657;33;32952;-90
2021/12/19 13:32:27;;;;;;;5.93;3.65;;;;;;;8.28;58.21;99806.25;4298483;33;34325;-89
2021/12/19 13:34:56;;;;;;;;;;;;;;;8.27;58.72;99808.03;4315622;33;32497;-93
2021/12/19 13:38:11;;;;;;;7.97;3.40;;;;;;;8.05;59.18;99807.03;4342008;33;33010;-90
2021/12/19 13:40:43;;;;;;;5.68;3.20;;;;;;;8.28;58.44;99801.84;4357843;32;33890;-89
2021/12/19 13:43:17;;;;;;;5.78;3.35;;;;;;;8.20;58.50;99790.72;4348348;33;33684;-91
2021/12/19 13:45:58;;;;;;;6.57;3.20;;;;;;;8.41;58.36;99786.53;4334567;33;32813;-90
2021/12/19 13:48:30;;;;;;;4.95;3.35;;;;;;;8.44;58.15;99771.47;4335292;33;32373;-90
2021/12/19 13:51:03;;;;;;;5.40;2.95;;;;;;;8.11;59.22;99781.38;4347404;33;33043;-90
2021/12/19 13:53:54;;;;;;;6.00;2.97;;;;;;;8.46;57.95;99782.84;4325625;33;34453;-88
2021/12/19 13:56:30;;;;;;;5.10;2.33;;;;;;;8.18;58.69;99768.88;4347118;33;33420;-87
2021/12/19 13:59:00;;;;;;;5.32;3.47;;;;;;;8.22;58.43;99767.88;4351281;32;32834;-89
2021/12/19 14:01:33;;;;;;;5.20;3.05;;;;;;;8.10;58.84;99782.28;4357137;32;35398;-89
2021/12/19 14:04:24;;;;;;;4.28;3.00;;;;;;;8.04;59.32;99771.13;4346354;33;33339;-90
2021/12/19 14:06:58;;;;;;;4.20;2.20;;;;;;;8.23;58.61;99766.09;4335702;33;32355;-91
2021/12/19 14:09:46;;;;;;;7.20;2.95;;;;;;;8.16;58.79;99766.28;4337448;33;33901;-90
2021/12/19 14:12:26;;;;;;;4.05;2.50;;;;;;;8.18;58.79;99761.84;4347581;33;34452;-90
2021/12/19 14:15:11;;;;;;;5.22;2.87;;;;;;;8.18;58.49;99764.47;4324999;33;33996;-90
2021/12/19 14:17:58;;;;;;;4.07;2.45;;;;;;;8.05;58.85;99763.19;4318967;33;32686;-89
2021/12/19 14:20:35;;;;;;;6.75;2.37;;;;;;;8.19;58.22;99778.50;4336467;33;32234;-89
2021/12/19 14:23:18;;;;;;;4.60;2.37;;;;;;;8.39;57.86;99773.41;4341525;33;32832;-90
2021/12/19 14:25:46;;;;;;;4.70;3.12;;;;;;;8.26;57.94;99782.63;4332762;33;34029;-91
2021/12/19 14:28:29;;;;;;;5.55;2.75;;;;;;;8.24;58.04;99779.19;4337668;33;33287;-89
2021/12/19 14:31:00;;;;;;;4.28;3.33;;;;;;;8.25;58.20;99773.00;4319435;33;32860;-89
2021/12/19 14:33:29;;;;;;;4.62;3.15;;;;;;;7.95;59.41;99762.63;4332480;33;32737;-89
2021/12/19 14:40:42;;;;;;;6.80;3.30;;;;;;;8.34;57.84;99764.78;4334502;33;34252;-88
2021/12/19 14:43:12;;;;;;;5.62;2.80;;;;;;;8.11;58.32;99773.47;4336454;33;33732;-87
2021/12/19 14:45:45;;;;;;;4.70;2.53;;;;;;;8.00;59.03;99769.50;4337317;33;34645;-87
2021/12/19 14:48:18;;;;;;;4.10;2.87;;;;;;;8.12;58.84;99774.38;4333508;33;32355;-88
2021/12/19 14:50:51;;;;;;;6.12;2.87;;;;;;;8.24;58.43;99760.78;4340228;33;33766;-87
2021/12/19 14:53:27;;;;;;;3.72;2.62;;;;;;;7.98;59.30;99758.19;4337399;33;34120;-87
2021/12/19 14:56:04;;;;;;;3.87;2.50;;;;;;;8.20;58.43;99749.50;4334665;33;33707;-87
2021/12/19 14:58:38;;;;;;;3.33;2.37;;;;;;;8.24;58.42;99763.41;4333573;33;32951;-88
2021/12/19 15:01:08;;;;;;;5.15;2.78;;;;;;;8.03;58.99;99749.25;4333531;33;32149;-87
2021/12/19 15:03:39;;;;;;;4.32;2.83;;;;;;;8.01;58.84;99752.81;4336939;33;33183;-87
2021/12/19 15:06:11;;;;;;;5.00;2.87;;;;;;;8.10;58.87;99752.50;4338712;33;33767;-89
2021/12/19 15:08:41;;;;;;;3.28;2.20;;;;;;;8.04;58.80;99745.69;4333180;33;32727;-89
2021/12/19 15:11:09;;;;;;;5.93;3.25;;;;;;;7.92;58.77;99746.94;4333849;33;32396;-88
2021/12/19 15:13:37;;;;;;;5.85;3.40;;;;;;;7.63;60.07;99745.28;4333799;33;32573;-89